ADDS METAR Data INFO
IDs: Format: Raw Decoded Include TAF

Data at: 2306 UTC 15 Jul 2018

KJAX 152256Z 32003KT 6SM BR FEW024 FEW095 SCT150 BKN250 26/25 A3001 RMK AO2 SLP161 T02610250
KJAX 152215Z 05003KT 5SM BR SCT035 SCT075 BKN095 BKN250 27/24 A3000 RMK AO2 LTG DSNT SE AND S T02670244
KJAX 152156Z 12003KT 5SM VCTS BR FEW020 SCT035 BKN075 BKN250 26/24 A3000 RMK AO2 LTG DSNT S RAE39 TSE39 SLP159 P0001 T02610244
KJAX 152145Z 00000KT 5SM VCTS BR FEW020 SCT035 BKN080 BKN250 26/24 A3001 RMK AO2 LTG DSNT S AND SW RAE39 TSE39 P0001 T02560244
KJAX 152103Z 26007KT 3SM TSRA BR FEW020 BKN030CB BKN100 BKN250 25/23 A3001 RMK AO2 SFC VIS 4 LTG DSNT S AND SW OCNL LTGICCG VC SW-NW TS VC SW-NW MOV N P0001 T02500233
KJAX 152056Z COR 11004KT 1/2SM R08/6000VP6000FT TSRA BR FEW020 BKN030CB BKN100 BKN250 24/22 A3002 RMK AO2 SFC VIS 3 LTG DSNT S-W RAB05 SLP165 OCNL LTGICCG VC SW-NW TS VC SW-NW MOV N P0112 60112 T02440222 58005
KJAX 152029Z 07007KT 1/2SM R08/P6000FT TSRA BR FEW020 BKN035CB BKN100 BKN250 25/24 A3004 RMK AO2 SFC VIS 3/4 LTG DSNT S-NW RAB05 VIS W-NW 1 1/2 FRQ LTGICCG OHD TS OHD MOV N P0034 T02500239
KJAX 152020Z VRB06KT 1 1/2SM R08/3500VP6000FT TSRA BR FEW020 BKN035CB BKN100 BKN250 25/23 A3004 RMK AO2 SFC VIS 3 LTG DSNT W-N RAB05 VIS W-NW 1 1/2 FRQ LTGICCG OHD TS OHD MOV N P0032 T02500233
KJAX 151956Z 28010KT 10SM TS FEW020 BKN035CB BKN100 BKN250 28/23 A3003 RMK AO2 LTG DSNT W AND NW SLP170 FRQ LTGICCG OHD TS OHD MOV N T02830228
KJAX 151856Z 07010KT 10SM TS FEW040CB FEW060 SCT100 BKN250 32/26 A3002 RMK AO2 LTG DSNT W-N TSB31 SLP167 OCNL LTGIC VC S TS VC S MOV N CB NW-N MOV SE T03220256
KJAX 151831Z 06011KT 10SM TS FEW040 FEW055 SCT100 BKN250 32/24 A3002 RMK AO2 LTG DSNT N AND NW TSB31 TCU DSNT S T03170239
KJAX 151756Z 09009KT 10SM FEW040 FEW055 SCT100 BKN250 32/24 A3003 RMK AO2 LTG DSNT SW-N TSE26 SLP171 TCU DSNT S T03170244 10328 20250 58010
KJAX 151747Z 07010KT 10SM FEW040TCU SCT050 BKN100 BKN250 31/24 A3004 RMK AO2 LTG DSNT NW TSE26 TCU SE T03060244
KJAX 151732Z 07010KT 10SM VCTS SCT034TCU SCT050 BKN250 31/25 A3004 RMK AO2 LTG DSNT SW TSE26 TCU SE T03060250
KJAX 151656Z 05005KT 10SM FEW034TCU SCT050 BKN250 32/24 A3005 RMK AO2 LTG DSNT S AND SW SLP176 CB DSNT S AND SW TCU NE T03220239
KJAX 151556Z 00000KT 10SM SCT030TCU BKN250 31/24 A3007 RMK AO2 SLP182 CB DSNT S TCU E T03110239
KJAX 151456Z 00000KT 10SM SCT025 SCT150 BKN250 30/24 A3006 RMK AO2 LTG DSNT SE AND S SLP180 CB DSNT SE TCU DSNT E T03000239 50000
KJAX 151356Z 04004KT 10SM FEW025 FEW200 SCT250 29/24 A3007 RMK AO2 LTG DSNT E SLP182 CB DSNT E TCU DSNT E T02940244
KJAX 151256Z 03003KT 10SM FEW030 FEW150 FEW250 27/25 A3007 RMK AO2 SLP182 TCU DSNT E T02720250
KJAX 151156Z 01004KT 8SM FEW025 FEW070 FEW150 SCT250 25/24 A3006 RMK AO2 SLP180 TCU DSNT E 70084 T02500239 10250 20233 53015
KJAX 151056Z 35003KT 6SM BR FEW002 FEW025 FEW070 SCT250 24/23 A3005 RMK AO2 SLP176 T02390233
KJAX 151047Z 00000KT 5SM BR FEW002 FEW025 FEW070 SCT250 24/24 A3005 RMK AO2 T02390239
KJAX 150956Z 32003KT 6SM BR FEW025 24/24 A3003 RMK AO2 SLP170 T02390239
KJAX 150856Z 00000KT 6SM BR CLR 24/24 A3002 RMK AO2 SLP166 T02390239 55014
KJAX 150756Z 00000KT 4SM R08/3000VP6000FT BR CLR 24/24 A3002 RMK AO2 SLP165 T02390239
KJAX 150656Z 20003KT 6SM BR FEW250 24/24 A3004 RMK AO2 SLP172 T02440239
KJAX 150556Z 00000KT 6SM BR FEW029 25/25 A3006 RMK AO2 SLP179 T02500250 10272 20250 58003
KJAX 150524Z 29004KT 6SM BR FEW021 SCT029 SCT250 25/24 A3006 RMK AO2 T02500244
KJAX 150456Z 27003KT 6SM BR BKN022 BKN250 25/25 A3007 RMK AO2 SLP182 T02500250 403220239
KJAX 150419Z 00000KT 8SM BKN019 BKN250 25/24 A3007 RMK AO2 T02500244
KJAX 150356Z 00000KT 9SM FEW250 25/24 A3007 RMK AO2 SLP183 T02500244
KJAX 150256Z 00000KT 9SM SCT250 26/25 A3007 RMK AO2 SLP183 T02560250 53004
KJAX 150156Z 00000KT 9SM BKN250 26/25 A3006 RMK AO2 SLP180 T02560250
KJAX 150056Z 03006KT 10SM FEW035 FEW075 SCT150 BKN250 27/25 A3006 RMK AO2 LTG DSNT N SLP178 OCNL LTGIC DSNT NE CB DSNT NE T02670250
KJAX 142356Z 00000KT 10SM FEW035 FEW090 SCT150 BKN250 27/24 A3006 RMK AO2 LTG DSNT N SLP178 OCNL LTGIC DSNT N CB DSNT N 60084 T02720244 10311 20244 53003
KJAX 142256Z 00000KT 10SM FEW035 FEW090 SCT150 BKN250 29/23 A3005 RMK AO2 SLP175 T02890228
KJAX 142156Z 19003KT 10SM FEW060 FEW090 SCT150 BKN250 27/24 A3004 RMK AO2 SLP173 T02720239
KJAX 142056Z 15004KT 10SM FEW026 FEW060 SCT090 BKN150 BKN250 26/24 A3005 RMK AO2 LTG DSNT S RAE19 TSE36 SLP176 P0000 60084 T02560239 58010
KJAX 142042Z 15004KT 10SM FEW026 FEW060 SCT090 BKN150 BKN250 26/24 A3007
KJAX 141956Z 34003KT 7SM -TSRA FEW026 SCT045CB BKN090 BKN150 OVC250 26/24 A3006 RMK AO2 LTG DSNT ALQDS SLP181 FRQ LTGIC VC E-SE TS VC E-SE MOV SE P0002 T02560239
KJAX 141856Z 12010KT 5SM TSRA BR SCT026 SCT045CB BKN060 OVC150 25/24 A3008 RMK AO2 LTG DSNT SW-NW RAB20 TSB09 SLP187 CONS LTGICCG OHD TS OHD MOV SE P0082 T02500239
KJAX 141850Z 13009KT 2 1/2SM R08/4500VP6000FT +TSRA BR SCT026 BKN045CB BKN060 OVC150 25/24 A3007 RMK AO2 LTG DSNT SW-NW RAB20 TSB09 OCNL LTGICCG OHD TS OHD MOV SE P0078
KJAX 141844Z 24010KT 1SM R08/2000VP6000FT +TSRA BR SCT020 BKN029CB OVC045 25/23 A3008 RMK AO2 LTG DSNT SW-NW RAB20 TSB09 FRQ LTGICCG OHD TS OHD MOV SE P0072 T02500233
KJAX 141831Z 27014KT 1/2SM R08/3500VP6000FT +TSRA FG FEW022 BKN027CB OVC045 24/23 A3008 RMK AO2 LTG DSNT SW-NW RAB20 TSB09 FRQ LTGICCG OHD TS OHD MOV SE P0016 T02440233
KJAX 141826Z 26013KT 1 3/4SM R08/3500VP6000FT -TSRA BR SCT027 BKN035CB BKN100 26/23 A3008 RMK AO2 LTG DSNT SW-NW RAB20 TSB09 FRQ LTGICCG OHD TS OHD MOV SE P0000 T02560233
KJAX 141810Z 28011KT 10SM TS SCT027 BKN035CB BKN100 BKN250 27/23 A3009 RMK AO2 LTG DSNT W AND NW TSB09 OCNL LTGICCC VC W TS VC W MOV SE T02720228
KJAX 141756Z COR VRB05KT 10SM FEW030 SCT040CB SCT095 BKN250 32/25 A3008 RMK AO2 LTG DSNT W AND NW TSE31 SLP186 CB W MOV SE T03170250 10322 20256 50000
KJAX 141731Z VRB06KT 10SM FEW032 SCT040 SCT095 BKN250 32/26 A3008 RMK AO2 LTG DSNT W AND NW TSE31 T03170256
KJAX 141656Z 09008KT 10SM TS FEW040CB SCT045 SCT100 BKN250 31/26 A3009 RMK AO2 LTG DSNT W AND NW TSB49 SLP188 OCNL LTGIC VC W TS VC W MOV SE T03110256
KJAX 141649Z 10009KT 10SM TS FEW030 SCT040CB SCT100 BKN250 31/26 A3009 RMK AO2 LTG DSNT W AND NW TSB49 OCNL LTGIC VC W TS VC W MOV SE T03110256
KJAX 141614Z 08007KT 10SM FEW026 SCT033 SCT100 BKN250 30/26 A3009 RMK AO2 LTG DSNT W T03000256
KJAX 141556Z 09007KT 10SM SCT023 BKN029 BKN150 BKN250 30/26 A3009 RMK AO2 SLP190 T03000256
KJAX 141544Z 08006KT 10SM BKN025 BKN150 BKN250 30/26 A3009 RMK AO2 T03000256
KJAX 141456Z 04006KT 10SM FEW025 FEW150 BKN250 31/26 A3008 RMK AO2 SLP186 T03060256 53002
KJAX 141356Z 33004KT 10SM FEW025 FEW060 FEW110 BKN250 31/25 A3008 RMK AO2 LTG DSNT NE SLP186 T03060250
KJAX 141256Z 30003KT 10SM FEW030 FEW060 FEW100 BKN250 28/25 A3007 RMK AO2 SLP184 T02780250
KJAX 141156Z 24005KT 10SM FEW060 SCT100 BKN250 26/24 A3007 RMK AO2 SLP184 T02560244 10256 20239 53008